sensor_id;sensor_type;location;lat;lon;timestamp;temperature;humidity
29571;DHT22;16814;52.118;11.436;2023-03-31T00:00:57;9.20;99.90
29571;DHT22;16814;52.118;11.436;2023-03-31T00:03:25;9.20;99.90
29571;DHT22;16814;52.118;11.436;2023-03-31T00:05:56;9.20;99.90
29571;DHT22;16814;52.118;11.436;2023-03-31T00:08:23;9.20;99.90
29571;DHT22;16814;52.118;11.436;2023-03-31T00:10:50;9.20;99.90
29571;DHT22;16814;52.118;11.436;2023-03-31T00:13:17;9.30;99.90
29571;DHT22;16814;52.118;11.436;2023-03-31T00:15:43;9.30;99.90
29571;DHT22;16814;52.118;11.436;2023-03-31T00:18:08;9.30;99.90
29571;DHT22;16814;52.118;11.436;2023-03-31T00:20:34;9.20;99.90
29571;DHT22;16814;52.118;11.436;2023-03-31T00:23:03;9.30;99.90
29571;DHT22;16814;52.118;11.436;2023-03-31T00:25:31;9.30;99.90
29571;DHT22;16814;52.118;11.436;2023-03-31T00:27:56;9.30;99.90
29571;DHT22;16814;52.118;11.436;2023-03-31T00:30:22;9.30;99.90
29571;DHT22;16814;52.118;11.436;2023-03-31T00:32:47;9.30;99.90
29571;DHT22;16814;52.118;11.436;2023-03-31T00:35:14;9.40;99.90
29571;DHT22;16814;52.118;11.436;2023-03-31T00:37:39;9.40;99.90
29571;DHT22;16814;52.118;11.436;2023-03-31T00:40:08;9.40;99.90
29571;DHT22;16814;52.118;11.436;2023-03-31T00:42:39;9.40;99.90
29571;DHT22;16814;52.118;11.436;2023-03-31T00:45:23;9.40;99.90
29571;DHT22;16814;52.118;11.436;2023-03-31T00:48:01;9.40;99.90
29571;DHT22;16814;52.118;11.436;2023-03-31T00:50:32;9.40;99.90
29571;DHT22;16814;52.118;11.436;2023-03-31T00:53:09;9.30;99.90
29571;DHT22;16814;52.118;11.436;2023-03-31T00:55:41;9.20;99.90
29571;DHT22;16814;52.118;11.436;2023-03-31T00:58:08;9.20;99.90
29571;DHT22;16814;52.118;11.436;2023-03-31T01:00:46;9.20;99.90
29571;DHT22;16814;52.118;11.436;2023-03-31T01:03:17;9.30;99.90
29571;DHT22;16814;52.118;11.436;2023-03-31T01:05:52;9.30;99.90
29571;DHT22;16814;52.118;11.436;2023-03-31T01:08:21;9.20;99.90
29571;DHT22;16814;52.118;11.436;2023-03-31T01:10:55;9.20;99.90
29571;DHT22;16814;52.118;11.436;2023-03-31T01:13:22;9.30;99.90
29571;DHT22;16814;52.118;11.436;2023-03-31T01:15:50;9.30;99.90
29571;DHT22;16814;52.118;11.436;2023-03-31T01:18:17;9.30;99.90
29571;DHT22;16814;52.118;11.436;2023-03-31T01:32:59;9.20;99.90
29571;DHT22;16814;52.118;11.436;2023-03-31T01:41:45;9.30;99.90
29571;DHT22;16814;52.118;11.436;2023-03-31T01:47:27;9.40;99.90
29571;DHT22;16814;52.118;11.436;2023-03-31T01:50:02;9.30;99.90
29571;DHT22;16814;52.118;11.436;2023-03-31T01:52:46;9.30;99.90
29571;DHT22;16814;52.118;11.436;2023-03-31T01:55:23;9.30;99.90
29571;DHT22;16814;52.118;11.436;2023-03-31T01:58:01;9.40;99.90
29571;DHT22;16814;52.118;11.436;2023-03-31T02:00:34;9.40;99.90
29571;DHT22;16814;52.118;11.436;2023-03-31T02:03:16;9.40;99.90
29571;DHT22;16814;52.118;11.436;2023-03-31T02:05:55;9.50;99.90
29571;DHT22;16814;52.118;11.436;2023-03-31T02:08:29;9.50;99.90
29571;DHT22;16814;52.118;11.436;2023-03-31T02:10:57;9.50;99.90
29571;DHT22;16814;52.118;11.436;2023-03-31T02:13:26;9.40;99.90
29571;DHT22;16814;52.118;11.436;2023-03-31T02:15:56;9.50;99.90
29571;DHT22;16814;52.118;11.436;2023-03-31T02:18:27;9.40;99.90
29571;DHT22;16814;52.118;11.436;2023-03-31T02:20:56;9.40;99.90
29571;DHT22;16814;52.118;11.436;2023-03-31T02:23:27;9.40;99.90
29571;DHT22;16814;52.118;11.436;2023-03-31T02:26:22;9.40;99.90
29571;DHT22;16814;52.118;11.436;2023-03-31T02:28:45;9.40;99.90
29571;DHT22;16814;52.118;11.436;2023-03-31T02:33:57;9.40;99.90
29571;DHT22;16814;52.118;11.436;2023-03-31T02:36:23;9.40;99.90
29571;DHT22;16814;52.118;11.436;2023-03-31T02:38:54;9.30;99.90
29571;DHT22;16814;52.118;11.436;2023-03-31T02:41:21;9.30;99.90
29571;DHT22;16814;52.118;11.436;2023-03-31T02:43:46;9.40;99.90
29571;DHT22;16814;52.118;11.436;2023-03-31T02:46:12;9.20;99.90
29571;DHT22;16814;52.118;11.436;2023-03-31T02:48:46;9.20;99.90
29571;DHT22;16814;52.118;11.436;2023-03-31T02:54:52;9.20;99.90
29571;DHT22;16814;52.118;11.436;2023-03-31T02:57:18;9.10;99.90
29571;DHT22;16814;52.118;11.436;2023-03-31T03:05:42;9.00;99.90
29571;DHT22;16814;52.118;11.436;2023-03-31T03:08:28;9.00;99.90
29571;DHT22;16814;52.118;11.436;2023-03-31T03:11:19;9.00;99.90
29571;DHT22;16814;52.118;11.436;2023-03-31T03:13:54;9.00;99.90
29571;DHT22;16814;52.118;11.436;2023-03-31T03:16:31;9.00;99.90
29571;DHT22;16814;52.118;11.436;2023-03-31T03:18:59;9.00;99.90
29571;DHT22;16814;52.118;11.436;2023-03-31T03:21:26;9.00;99.90
29571;DHT22;16814;52.118;11.436;2023-03-31T03:23:52;8.90;99.90
29571;DHT22;16814;52.118;11.436;2023-03-31T03:26:19;8.80;99.90
29571;DHT22;16814;52.118;11.436;2023-03-31T03:28:46;8.80;99.90
29571;DHT22;16814;52.118;11.436;2023-03-31T03:31:13;8.60;99.90
29571;DHT22;16814;52.118;11.436;2023-03-31T03:33:40;8.60;99.90
29571;DHT22;16814;52.118;11.436;2023-03-31T03:36:06;8.60;99.90
29571;DHT22;16814;52.118;11.436;2023-03-31T03:38:32;8.60;99.90
29571;DHT22;16814;52.118;11.436;2023-03-31T03:40:57;8.50;99.90
29571;DHT22;16814;52.118;11.436;2023-03-31T03:43:23;8.50;99.90
29571;DHT22;16814;52.118;11.436;2023-03-31T03:45:49;8.40;99.90
29571;DHT22;16814;52.118;11.436;2023-03-31T03:48:15;8.20;99.90
29571;DHT22;16814;52.118;11.436;2023-03-31T03:50:40;8.20;99.90
29571;DHT22;16814;52.118;11.436;2023-03-31T03:53:06;8.20;99.90
29571;DHT22;16814;52.118;11.436;2023-03-31T03:55:32;8.20;99.90
29571;DHT22;16814;52.118;11.436;2023-03-31T03:57:58;8.20;99.90
29571;DHT22;16814;52.118;11.436;2023-03-31T04:00:24;8.10;99.90
29571;DHT22;16814;52.118;11.436;2023-03-31T04:02:49;8.10;99.90
29571;DHT22;16814;52.118;11.436;2023-03-31T04:05:15;8.20;99.90
29571;DHT22;16814;52.118;11.436;2023-03-31T04:07:41;8.00;99.90
29571;DHT22;16814;52.118;11.436;2023-03-31T04:10:07;8.10;99.90
29571;DHT22;16814;52.118;11.436;2023-03-31T04:12:34;8.10;99.90
29571;DHT22;16814;52.118;11.436;2023-03-31T04:15:00;8.20;99.90
29571;DHT22;16814;52.118;11.436;2023-03-31T04:17:26;8.10;99.90
29571;DHT22;16814;52.118;11.436;2023-03-31T04:20:04;8.30;99.90
29571;DHT22;16814;52.118;11.436;2023-03-31T04:22:32;8.40;99.90
29571;DHT22;16814;52.118;11.436;2023-03-31T04:25:06;8.50;99.90
29571;DHT22;16814;52.118;11.436;2023-03-31T04:27:35;8.50;99.90
29571;DHT22;16814;52.118;11.436;2023-03-31T04:30:01;8.40;99.90
29571;DHT22;16814;52.118;11.436;2023-03-31T04:32:26;8.40;99.90
29571;DHT22;16814;52.118;11.436;2023-03-31T04:34:52;8.30;99.90
29571;DHT22;16814;52.118;11.436;2023-03-31T04:37:28;8.40;99.90
29571;DHT22;16814;52.118;11.436;2023-03-31T04:39:59;8.40;99.90
29571;DHT22;16814;52.118;11.436;2023-03-31T04:42:32;8.30;99.90
29571;DHT22;16814;52.118;11.436;2023-03-31T04:44:58;8.30;99.90
29571;DHT22;16814;52.118;11.436;2023-03-31T04:47:23;8.40;99.90
29571;DHT22;16814;52.118;11.436;2023-03-31T04:49:49;8.40;99.90
29571;DHT22;16814;52.118;11.436;2023-03-31T04:52:15;8.30;99.90
29571;DHT22;16814;52.118;11.436;2023-03-31T04:54:40;8.40;99.90
29571;DHT22;16814;52.118;11.436;2023-03-31T04:57:06;8.40;99.90
29571;DHT22;16814;52.118;11.436;2023-03-31T04:59:31;8.40;99.90
29571;DHT22;16814;52.118;11.436;2023-03-31T05:01:57;8.40;99.90
29571;DHT22;16814;52.118;11.436;2023-03-31T05:04:22;8.40;99.90
29571;DHT22;16814;52.118;11.436;2023-03-31T05:06:48;8.40;99.90
29571;DHT22;16814;52.118;11.436;2023-03-31T05:09:14;8.50;99.90
29571;DHT22;16814;52.118;11.436;2023-03-31T05:11:40;8.60;99.90
29571;DHT22;16814;52.118;11.436;2023-03-31T05:14:06;8.60;99.90
29571;DHT22;16814;52.118;11.436;2023-03-31T05:16:31;8.70;99.90
29571;DHT22;16814;52.118;11.436;2023-03-31T05:18:57;8.70;99.90
29571;DHT22;16814;52.118;11.436;2023-03-31T05:21:22;8.70;99.90
29571;DHT22;16814;52.118;11.436;2023-03-31T05:23:49;8.60;99.90
29571;DHT22;16814;52.118;11.436;2023-03-31T05:26:15;8.60;99.90
29571;DHT22;16814;52.118;11.436;2023-03-31T05:28:41;8.60;99.90
29571;DHT22;16814;52.118;11.436;2023-03-31T05:31:07;8.60;99.90
29571;DHT22;16814;52.118;11.436;2023-03-31T05:33:33;8.70;99.90
29571;DHT22;16814;52.118;11.436;2023-03-31T05:35:59;8.90;99.90
29571;DHT22;16814;52.118;11.436;2023-03-31T05:38:26;9.10;99.90
29571;DHT22;16814;52.118;11.436;2023-03-31T05:40:54;9.40;99.90
29571;DHT22;16814;52.118;11.436;2023-03-31T05:43:20;9.50;99.90
29571;DHT22;16814;52.118;11.436;2023-03-31T05:45:45;9.80;99.90
29571;DHT22;16814;52.118;11.436;2023-03-31T05:48:11;10.00;99.90
29571;DHT22;16814;52.118;11.436;2023-03-31T05:50:37;10.10;99.90
29571;DHT22;16814;52.118;11.436;2023-03-31T05:53:02;10.20;99.90
29571;DHT22;16814;52.118;11.436;2023-03-31T05:55:28;10.30;99.90
29571;DHT22;16814;52.118;11.436;2023-03-31T05:57:53;10.30;99.90
29571;DHT22;16814;52.118;11.436;2023-03-31T06:00:19;10.30;99.90
29571;DHT22;16814;52.118;11.436;2023-03-31T06:02:45;10.40;99.90
29571;DHT22;16814;52.118;11.436;2023-03-31T06:05:11;10.60;99.90
29571;DHT22;16814;52.118;11.436;2023-03-31T06:07:36;10.90;99.90
29571;DHT22;16814;52.118;11.436;2023-03-31T06:10:02;11.10;99.90
29571;DHT22;16814;52.118;11.436;2023-03-31T06:12:28;11.40;99.90
29571;DHT22;16814;52.118;11.436;2023-03-31T06:14:53;11.50;99.90
29571;DHT22;16814;52.118;11.436;2023-03-31T06:17:19;11.50;99.90
29571;DHT22;16814;52.118;11.436;2023-03-31T06:19:44;11.30;99.90
29571;DHT22;16814;52.118;11.436;2023-03-31T06:22:10;11.10;99.90
29571;DHT22;16814;52.118;11.436;2023-03-31T06:24:35;10.80;99.90
29571;DHT22;16814;52.118;11.436;2023-03-31T06:27:01;10.70;99.90
29571;DHT22;16814;52.118;11.436;2023-03-31T06:29:28;10.60;99.90
29571;DHT22;16814;52.118;11.436;2023-03-31T06:31:53;10.50;99.90
29571;DHT22;16814;52.118;11.436;2023-03-31T06:34:19;10.30;99.90
29571;DHT22;16814;52.118;11.436;2023-03-31T06:36:45;10.30;99.90
29571;DHT22;16814;52.118;11.436;2023-03-31T06:39:10;10.30;99.90
29571;DHT22;16814;52.118;11.436;2023-03-31T06:41:36;10.20;99.90
29571;DHT22;16814;52.118;11.436;2023-03-31T06:44:03;10.20;99.90
29571;DHT22;16814;52.118;11.436;2023-03-31T06:46:28;10.10;99.90
29571;DHT22;16814;52.118;11.436;2023-03-31T06:48:54;10.10;99.90
29571;DHT22;16814;52.118;11.436;2023-03-31T06:51:20;10.10;99.90
29571;DHT22;16814;52.118;11.436;2023-03-31T06:53:45;10.10;99.90
29571;DHT22;16814;52.118;11.436;2023-03-31T06:56:11;10.10;99.90
29571;DHT22;16814;52.118;11.436;2023-03-31T06:58:36;10.20;99.90
29571;DHT22;16814;52.118;11.436;2023-03-31T07:01:03;10.20;99.90
29571;DHT22;16814;52.118;11.436;2023-03-31T07:03:30;10.20;99.90
29571;DHT22;16814;52.118;11.436;2023-03-31T07:05:56;10.20;99.90
29571;DHT22;16814;52.118;11.436;2023-03-31T07:08:22;10.20;99.90
29571;DHT22;16814;52.118;11.436;2023-03-31T07:10:52;10.20;99.90
29571;DHT22;16814;52.118;11.436;2023-03-31T07:13:18;10.30;99.90
29571;DHT22;16814;52.118;11.436;2023-03-31T07:15:46;10.30;99.90
29571;DHT22;16814;52.118;11.436;2023-03-31T07:18:13;10.40;99.90
29571;DHT22;16814;52.118;11.436;2023-03-31T07:20:40;10.40;99.90
29571;DHT22;16814;52.118;11.436;2023-03-31T07:23:06;10.40;99.90
29571;DHT22;16814;52.118;11.436;2023-03-31T07:25:33;10.50;99.90
29571;DHT22;16814;52.118;11.436;2023-03-31T07:27:59;10.50;99.90
29571;DHT22;16814;52.118;11.436;2023-03-31T07:30:25;10.60;99.90
29571;DHT22;16814;52.118;11.436;2023-03-31T07:32:51;10.70;99.90
29571;DHT22;16814;52.118;11.436;2023-03-31T07:35:18;10.70;99.90
29571;DHT22;16814;52.118;11.436;2023-03-31T07:37:45;10.90;99.90
29571;DHT22;16814;52.118;11.436;2023-03-31T07:40:14;11.00;99.90
29571;DHT22;16814;52.118;11.436;2023-03-31T07:42:40;11.00;99.90
29571;DHT22;16814;52.118;11.436;2023-03-31T07:45:07;11.20;99.90
29571;DHT22;16814;52.118;11.436;2023-03-31T07:47:33;11.30;99.90
29571;DHT22;16814;52.118;11.436;2023-03-31T07:49:59;11.40;99.90
29571;DHT22;16814;52.118;11.436;2023-03-31T07:52:25;11.50;99.90
29571;DHT22;16814;52.118;11.436;2023-03-31T07:54:50;11.60;99.90
29571;DHT22;16814;52.118;11.436;2023-03-31T07:57:16;11.60;99.90
29571;DHT22;16814;52.118;11.436;2023-03-31T07:59:45;11.60;99.90
29571;DHT22;16814;52.118;11.436;2023-03-31T08:02:15;11.60;99.90
29571;DHT22;16814;52.118;11.436;2023-03-31T08:04:42;11.60;99.90
29571;DHT22;16814;52.118;11.436;2023-03-31T08:07:09;11.60;99.90
29571;DHT22;16814;52.118;11.436;2023-03-31T08:09:36;11.60;99.90
29571;DHT22;16814;52.118;11.436;2023-03-31T08:12:01;11.60;99.90
29571;DHT22;16814;52.118;11.436;2023-03-31T08:14:27;11.60;99.90
29571;DHT22;16814;52.118;11.436;2023-03-31T08:16:52;11.60;99.90
29571;DHT22;16814;52.118;11.436;2023-03-31T08:19:20;11.50;99.90
29571;DHT22;16814;52.118;11.436;2023-03-31T08:21:46;11.50;99.90
29571;DHT22;16814;52.118;11.436;2023-03-31T08:24:12;11.40;99.90
29571;DHT22;16814;52.118;11.436;2023-03-31T08:26:37;11.40;99.90
29571;DHT22;16814;52.118;11.436;2023-03-31T08:29:05;11.40;99.90
29571;DHT22;16814;52.118;11.436;2023-03-31T08:31:30;11.40;99.90
29571;DHT22;16814;52.118;11.436;2023-03-31T08:33:56;11.30;99.90
29571;DHT22;16814;52.118;11.436;2023-03-31T08:36:21;11.30;99.90
29571;DHT22;16814;52.118;11.436;2023-03-31T08:38:48;11.30;99.90
29571;DHT22;16814;52.118;11.436;2023-03-31T08:41:46;11.30;99.90
29571;DHT22;16814;52.118;11.436;2023-03-31T08:46:48;11.30;99.90
29571;DHT22;16814;52.118;11.436;2023-03-31T08:49:17;11.30;99.90
29571;DHT22;16814;52.118;11.436;2023-03-31T08:51:51;11.20;99.90
29571;DHT22;16814;52.118;11.436;2023-03-31T08:54:30;11.30;99.90
29571;DHT22;16814;52.118;11.436;2023-03-31T08:56:56;11.20;99.90
29571;DHT22;16814;52.118;11.436;2023-03-31T09:02:09;11.30;99.90
29571;DHT22;16814;52.118;11.436;2023-03-31T09:04:58;11.30;99.90
29571;DHT22;16814;52.118;11.436;2023-03-31T09:07:48;11.30;99.90
29571;DHT22;16814;52.118;11.436;2023-03-31T09:10:22;11.50;99.90
29571;DHT22;16814;52.118;11.436;2023-03-31T09:13:09;11.70;99.90
29571;DHT22;16814;52.118;11.436;2023-03-31T09:15:55;11.80;99.90
29571;DHT22;16814;52.118;11.436;2023-03-31T09:18:30;12.00;99.90
29571;DHT22;16814;52.118;11.436;2023-03-31T09:21:25;12.00;99.90
29571;DHT22;16814;52.118;11.436;2023-03-31T09:27:17;12.20;99.90
29571;DHT22;16814;52.118;11.436;2023-03-31T09:29:51;12.10;99.90
29571;DHT22;16814;52.118;11.436;2023-03-31T09:32:21;12.10;99.90
29571;DHT22;16814;52.118;11.436;2023-03-31T09:34:51;12.20;99.90
29571;DHT22;16814;52.118;11.436;2023-03-31T09:37:18;12.30;99.90
29571;DHT22;16814;52.118;11.436;2023-03-31T09:39:43;12.40;99.90
29571;DHT22;16814;52.118;11.436;2023-03-31T09:42:13;12.50;99.90
29571;DHT22;16814;52.118;11.436;2023-03-31T09:44:40;12.50;99.90
29571;DHT22;16814;52.118;11.436;2023-03-31T09:47:14;12.50;99.90
29571;DHT22;16814;52.118;11.436;2023-03-31T09:49:44;12.40;99.90
29571;DHT22;16814;52.118;11.436;2023-03-31T09:52:29;12.30;99.90
29571;DHT22;16814;52.118;11.436;2023-03-31T09:55:00;12.20;99.90
29571;DHT22;16814;52.118;11.436;2023-03-31T09:57:33;12.10;99.90
29571;DHT22;16814;52.118;11.436;2023-03-31T10:02:42;12.00;99.90
29571;DHT22;16814;52.118;11.436;2023-03-31T10:05:31;12.10;99.90
29571;DHT22;16814;52.118;11.436;2023-03-31T10:10:50;12.10;99.90
29571;DHT22;16814;52.118;11.436;2023-03-31T10:13:19;12.10;99.90
29571;DHT22;16814;52.118;11.436;2023-03-31T10:15:45;12.10;99.90
29571;DHT22;16814;52.118;11.436;2023-03-31T10:18:16;12.10;99.90
29571;DHT22;16814;52.118;11.436;2023-03-31T10:20:44;12.10;99.90
29571;DHT22;16814;52.118;11.436;2023-03-31T10:23:22;12.10;99.90
29571;DHT22;16814;52.118;11.436;2023-03-31T10:25:49;12.10;99.90
29571;DHT22;16814;52.118;11.436;2023-03-31T10:28:18;12.10;99.90
29571;DHT22;16814;52.118;11.436;2023-03-31T10:30:52;12.10;99.90
29571;DHT22;16814;52.118;11.436;2023-03-31T10:33:23;12.10;99.90
29571;DHT22;16814;52.118;11.436;2023-03-31T10:35:54;12.00;99.90
29571;DHT22;16814;52.118;11.436;2023-03-31T10:38:30;12.00;99.90
29571;DHT22;16814;52.118;11.436;2023-03-31T10:40:58;12.00;99.90
29571;DHT22;16814;52.118;11.436;2023-03-31T10:43:48;12.00;99.90
29571;DHT22;16814;52.118;11.436;2023-03-31T10:46:14;12.00;99.90
29571;DHT22;16814;52.118;11.436;2023-03-31T10:48:40;12.00;99.90
29571;DHT22;16814;52.118;11.436;2023-03-31T10:51:19;12.00;99.90
29571;DHT22;16814;52.118;11.436;2023-03-31T10:53:47;11.90;99.90
29571;DHT22;16814;52.118;11.436;2023-03-31T10:56:41;11.90;99.90
29571;DHT22;16814;52.118;11.436;2023-03-31T11:13:20;11.70;99.90
29571;DHT22;16814;52.118;11.436;2023-03-31T11:16:23;11.70;99.90
29571;DHT22;16814;52.118;11.436;2023-03-31T11:30:51;11.50;99.90
29571;DHT22;16814;52.118;11.436;2023-03-31T11:33:48;11.40;99.90
29571;DHT22;16814;52.118;11.436;2023-03-31T11:39:52;11.30;99.90
29571;DHT22;16814;52.118;11.436;2023-03-31T11:42:32;11.30;99.90
29571;DHT22;16814;52.118;11.436;2023-03-31T11:45:14;11.30;99.90
29571;DHT22;16814;52.118;11.436;2023-03-31T11:47:43;11.20;99.90
29571;DHT22;16814;52.118;11.436;2023-03-31T11:50:20;11.20;99.90
29571;DHT22;16814;52.118;11.436;2023-03-31T11:52:59;11.20;99.90
29571;DHT22;16814;52.118;11.436;2023-03-31T11:55:28;11.10;99.90
29571;DHT22;16814;52.118;11.436;2023-03-31T11:57:58;11.20;99.90
29571;DHT22;16814;52.118;11.436;2023-03-31T12:00:29;11.20;99.90
29571;DHT22;16814;52.118;11.436;2023-03-31T12:03:06;11.20;99.90
29571;DHT22;16814;52.118;11.436;2023-03-31T12:05:38;11.20;99.90
29571;DHT22;16814;52.118;11.436;2023-03-31T12:08:15;11.20;99.90
29571;DHT22;16814;52.118;11.436;2023-03-31T12:10:59;11.10;99.90
29571;DHT22;16814;52.118;11.436;2023-03-31T12:13:44;11.00;99.90
29571;DHT22;16814;52.118;11.436;2023-03-31T12:21:28;11.00;99.90
29571;DHT22;16814;52.118;11.436;2023-03-31T12:23:55;10.90;99.90
29571;DHT22;16814;52.118;11.436;2023-03-31T12:31:53;10.80;99.90
29571;DHT22;16814;52.118;11.436;2023-03-31T12:34:21;10.80;99.90
29571;DHT22;16814;52.118;11.436;2023-03-31T12:42:48;10.50;99.90
29571;DHT22;16814;52.118;11.436;2023-03-31T12:45:19;10.40;99.90
29571;DHT22;16814;52.118;11.436;2023-03-31T12:48:14;10.40;99.90
29571;DHT22;16814;52.118;11.436;2023-03-31T12:56:17;10.40;99.90
29571;DHT22;16814;52.118;11.436;2023-03-31T12:58:44;10.50;99.90
29571;DHT22;16814;52.118;11.436;2023-03-31T13:01:18;10.60;99.90
29571;DHT22;16814;52.118;11.436;2023-03-31T13:09:01;10.60;99.90
29571;DHT22;16814;52.118;11.436;2023-03-31T13:14:02;10.70;99.90
29571;DHT22;16814;52.118;11.436;2023-03-31T13:16:30;10.80;99.90
29571;DHT22;16814;52.118;11.436;2023-03-31T13:18:56;10.70;99.90
29571;DHT22;16814;52.118;11.436;2023-03-31T13:21:23;10.80;99.90
29571;DHT22;16814;52.118;11.436;2023-03-31T13:23:49;10.70;99.90
29571;DHT22;16814;52.118;11.436;2023-03-31T13:26:38;10.70;99.90
29571;DHT22;16814;52.118;11.436;2023-03-31T13:34:34;10.80;99.90
29571;DHT22;16814;52.118;11.436;2023-03-31T13:51:37;10.70;99.90
29571;DHT22;16814;52.118;11.436;2023-03-31T14:02:46;10.80;99.90
29571;DHT22;16814;52.118;11.436;2023-03-31T14:06:11;10.80;99.90
29571;DHT22;16814;52.118;11.436;2023-03-31T14:08:18;11.00;99.90
29571;DHT22;16814;52.118;11.436;2023-03-31T14:10:48;11.10;99.90
29571;DHT22;16814;52.118;11.436;2023-03-31T14:13:16;11.00;99.90
29571;DHT22;16814;52.118;11.436;2023-03-31T14:15:49;11.10;99.90
29571;DHT22;16814;52.118;11.436;2023-03-31T14:21:14;11.30;99.90
29571;DHT22;16814;52.118;11.436;2023-03-31T14:26:36;11.30;99.90
29571;DHT22;16814;52.118;11.436;2023-03-31T14:29:23;11.30;99.90
29571;DHT22;16814;52.118;11.436;2023-03-31T14:35:20;11.30;99.90
29571;DHT22;16814;52.118;11.436;2023-03-31T14:37:51;11.30;99.90
29571;DHT22;16814;52.118;11.436;2023-03-31T14:40:19;11.30;99.90
29571;DHT22;16814;52.118;11.436;2023-03-31T14:42:45;11.20;99.90
29571;DHT22;16814;52.118;11.436;2023-03-31T14:45:23;11.20;99.90
29571;DHT22;16814;52.118;11.436;2023-03-31T14:48:03;11.10;99.90
29571;DHT22;16814;52.118;11.436;2023-03-31T14:50:34;11.00;99.90
29571;DHT22;16814;52.118;11.436;2023-03-31T14:53:00;11.10;99.90
29571;DHT22;16814;52.118;11.436;2023-03-31T14:55:28;11.00;99.90
29571;DHT22;16814;52.118;11.436;2023-03-31T14:57:59;11.10;99.90
29571;DHT22;16814;52.118;11.436;2023-03-31T15:00:32;11.00;99.90
29571;DHT22;16814;52.118;11.436;2023-03-31T15:03:01;11.00;99.90
29571;DHT22;16814;52.118;11.436;2023-03-31T15:05:33;11.00;99.90
29571;DHT22;16814;52.118;11.436;2023-03-31T15:08:21;10.90;99.90
29571;DHT22;16814;52.118;11.436;2023-03-31T15:10:58;11.00;99.90
29571;DHT22;16814;52.118;11.436;2023-03-31T15:13:34;11.00;99.90
29571;DHT22;16814;52.118;11.436;2023-03-31T15:16:28;11.00;99.90
29571;DHT22;16814;52.118;11.436;2023-03-31T15:18:55;10.90;99.90
29571;DHT22;16814;52.118;11.436;2023-03-31T15:21:23;10.90;99.90
29571;DHT22;16814;52.118;11.436;2023-03-31T15:23:57;10.90;99.90
29571;DHT22;16814;52.118;11.436;2023-03-31T15:27:34;10.90;99.90
29571;DHT22;16814;52.118;11.436;2023-03-31T15:29:40;11.00;99.90
29571;DHT22;16814;52.118;11.436;2023-03-31T15:34:48;11.00;99.90
29571;DHT22;16814;52.118;11.436;2023-03-31T15:37:14;11.00;99.90
29571;DHT22;16814;52.118;11.436;2023-03-31T15:39:44;11.10;99.90
29571;DHT22;16814;52.118;11.436;2023-03-31T15:42:10;11.20;99.90
29571;DHT22;16814;52.118;11.436;2023-03-31T15:44:47;11.30;99.90
29571;DHT22;16814;52.118;11.436;2023-03-31T15:47:19;11.30;99.90
29571;DHT22;16814;52.118;11.436;2023-03-31T15:52:37;11.20;99.90
29571;DHT22;16814;52.118;11.436;2023-03-31T15:57:47;11.30;99.90
29571;DHT22;16814;52.118;11.436;2023-03-31T16:00:40;11.50;99.90
29571;DHT22;16814;52.118;11.436;2023-03-31T16:03:19;11.40;99.90
29571;DHT22;16814;52.118;11.436;2023-03-31T16:05:59;11.60;99.90
29571;DHT22;16814;52.118;11.436;2023-03-31T16:11:10;11.60;99.90
29571;DHT22;16814;52.118;11.436;2023-03-31T16:13:40;11.60;99.90
29571;DHT22;16814;52.118;11.436;2023-03-31T16:16:08;11.60;99.90
29571;DHT22;16814;52.118;11.436;2023-03-31T16:18:48;11.40;99.90
29571;DHT22;16814;52.118;11.436;2023-03-31T16:21:22;11.50;99.90
29571;DHT22;16814;52.118;11.436;2023-03-31T16:23:54;11.50;99.90
29571;DHT22;16814;52.118;11.436;2023-03-31T16:26:25;11.50;99.90
29571;DHT22;16814;52.118;11.436;2023-03-31T16:28:53;11.50;99.90
29571;DHT22;16814;52.118;11.436;2023-03-31T16:31:37;11.50;99.90
29571;DHT22;16814;52.118;11.436;2023-03-31T16:34:09;11.50;99.90
29571;DHT22;16814;52.118;11.436;2023-03-31T16:36:35;11.50;99.90
29571;DHT22;16814;52.118;11.436;2023-03-31T16:39:01;11.50;99.90
29571;DHT22;16814;52.118;11.436;2023-03-31T16:41:33;11.50;99.90
29571;DHT22;16814;52.118;11.436;2023-03-31T16:44:00;11.50;99.90
29571;DHT22;16814;52.118;11.436;2023-03-31T16:46:25;11.50;99.90
29571;DHT22;16814;52.118;11.436;2023-03-31T16:48:52;11.50;99.90
29571;DHT22;16814;52.118;11.436;2023-03-31T16:51:18;11.50;99.90
29571;DHT22;16814;52.118;11.436;2023-03-31T16:53:45;11.40;99.90
29571;DHT22;16814;52.118;11.436;2023-03-31T16:56:11;11.40;99.90
29571;DHT22;16814;52.118;11.436;2023-03-31T16:58:39;11.30;99.90
29571;DHT22;16814;52.118;11.436;2023-03-31T17:01:06;11.30;99.90
29571;DHT22;16814;52.118;11.436;2023-03-31T17:03:32;11.20;99.90
29571;DHT22;16814;52.118;11.436;2023-03-31T17:06:04;11.10;99.90
29571;DHT22;16814;52.118;11.436;2023-03-31T17:08:30;11.10;99.90
29571;DHT22;16814;52.118;11.436;2023-03-31T17:11:02;11.00;99.90
29571;DHT22;16814;52.118;11.436;2023-03-31T17:13:30;10.90;99.90
29571;DHT22;16814;52.118;11.436;2023-03-31T17:15:57;10.80;99.90
29571;DHT22;16814;52.118;11.436;2023-03-31T17:18:22;10.80;99.90
29571;DHT22;16814;52.118;11.436;2023-03-31T17:20:48;10.70;99.90
29571;DHT22;16814;52.118;11.436;2023-03-31T17:23:13;10.70;99.90
29571;DHT22;16814;52.118;11.436;2023-03-31T17:25:49;10.60;99.90
29571;DHT22;16814;52.118;11.436;2023-03-31T17:28:16;10.60;99.90
29571;DHT22;16814;52.118;11.436;2023-03-31T17:30:42;10.50;99.90
29571;DHT22;16814;52.118;11.436;2023-03-31T17:33:09;10.40;99.90
29571;DHT22;16814;52.118;11.436;2023-03-31T17:35:36;10.30;99.90
29571;DHT22;16814;52.118;11.436;2023-03-31T17:38:01;10.30;99.90
29571;DHT22;16814;52.118;11.436;2023-03-31T17:40:28;10.30;99.90
29571;DHT22;16814;52.118;11.436;2023-03-31T17:42:58;10.20;99.90
29571;DHT22;16814;52.118;11.436;2023-03-31T17:45:23;10.00;99.90
29571;DHT22;16814;52.118;11.436;2023-03-31T17:47:49;10.00;99.90
29571;DHT22;16814;52.118;11.436;2023-03-31T17:50:16;10.00;99.90
29571;DHT22;16814;52.118;11.436;2023-03-31T17:52:42;9.90;99.90
29571;DHT22;16814;52.118;11.436;2023-03-31T17:55:08;9.90;99.90
29571;DHT22;16814;52.118;11.436;2023-03-31T17:57:34;9.90;99.90
29571;DHT22;16814;52.118;11.436;2023-03-31T18:00:02;9.90;99.90
29571;DHT22;16814;52.118;11.436;2023-03-31T18:02:28;9.90;99.90
29571;DHT22;16814;52.118;11.436;2023-03-31T18:04:54;9.80;99.90
29571;DHT22;16814;52.118;11.436;2023-03-31T18:07:19;9.80;99.90
29571;DHT22;16814;52.118;11.436;2023-03-31T18:09:47;9.70;99.90
29571;DHT22;16814;52.118;11.436;2023-03-31T18:12:13;9.70;99.90
29571;DHT22;16814;52.118;11.436;2023-03-31T18:14:38;9.70;99.90
29571;DHT22;16814;52.118;11.436;2023-03-31T18:17:04;9.60;99.90